createdAt,value
2023-01-11T00:01:25.575Z,98773.00
2023-01-11T00:03:01.440Z,98754.00
2023-01-11T00:04:34.600Z,98758.00
2023-01-11T00:06:08.174Z,98765.00
2023-01-11T00:07:42.787Z,98762.00
2023-01-11T00:09:17.018Z,98757.00
2023-01-11T00:10:50.348Z,98752.00
2023-01-11T00:12:23.631Z,98752.00
2023-01-11T00:13:56.709Z,98762.00
2023-01-11T00:15:29.380Z,98756.00
2023-01-11T00:17:02.703Z,98751.00
2023-01-11T00:18:37.188Z,98758.00
2023-01-11T00:20:10.962Z,98758.00
2023-01-11T00:21:44.168Z,98750.00
2023-01-11T00:23:18.675Z,98759.00
2023-01-11T00:24:51.817Z,98759.00
2023-01-11T00:26:25.117Z,98756.00
2023-01-11T00:27:58.264Z,98761.00
2023-01-11T00:29:31.312Z,98762.00
2023-01-11T00:31:04.771Z,98758.00
2023-01-11T00:32:37.953Z,98752.00
2023-01-11T00:34:11.039Z,98756.00
2023-01-11T00:35:44.095Z,98760.00
2023-01-11T00:37:16.251Z,98749.00
2023-01-11T00:38:53.894Z,98768.00
2023-01-11T00:40:27.824Z,98753.00
2023-01-11T00:42:18.800Z,98750.00
2023-01-11T00:44:09.570Z,98760.00
2023-01-11T00:46:15.025Z,98746.00
2023-01-11T00:48:01.206Z,98755.00
2023-01-11T00:49:34.440Z,98740.00
2023-01-11T00:51:07.569Z,98745.00
2023-01-11T00:52:40.734Z,98737.00
2023-01-11T00:54:14.700Z,98736.00
2023-01-11T00:55:47.845Z,98742.00
2023-01-11T00:57:21.284Z,98736.00
2023-01-11T00:58:54.583Z,98725.00
2023-01-11T01:00:29.633Z,98733.00
2023-01-11T01:02:02.163Z,98736.00
2023-01-11T01:03:35.714Z,98735.00
2023-01-11T01:05:09.656Z,98739.00
2023-01-11T01:06:43.057Z,98740.00
2023-01-11T01:08:16.428Z,98746.00
2023-01-11T01:09:50.842Z,98751.00
2023-01-11T01:11:23.358Z,98752.00
2023-01-11T01:13:14.400Z,98742.00
2023-01-11T01:14:48.580Z,98724.00
2023-01-11T01:16:21.930Z,98736.00
2023-01-11T01:17:55.921Z,98742.00
2023-01-11T01:19:29.986Z,98741.00
2023-01-11T01:21:02.350Z,98733.00
2023-01-11T01:22:35.484Z,98740.00
2023-01-11T01:24:09.419Z,98749.00
2023-01-11T01:25:44.059Z,98745.00
2023-01-11T01:27:18.026Z,98745.00
2023-01-11T01:28:51.552Z,98739.00
2023-01-11T01:30:24.610Z,98738.00
2023-01-11T01:31:57.791Z,98750.00
2023-01-11T01:33:31.041Z,98737.00
2023-01-11T01:35:04.505Z,98731.00
2023-01-11T01:36:37.762Z,98734.00
2023-01-11T01:38:10.909Z,98736.00
2023-01-11T01:39:44.206Z,98733.00
2023-01-11T01:41:17.843Z,98731.00
2023-01-11T01:42:55.395Z,98739.00
2023-01-11T01:45:07.151Z,98735.00
2023-01-11T01:46:40.475Z,98737.00
2023-01-11T01:48:17.637Z,98734.00
2023-01-11T01:49:51.423Z,98727.00
2023-01-11T01:51:30.142Z,98732.00
2023-01-11T01:53:10.169Z,98730.00
2023-01-11T01:54:49.775Z,98722.00
2023-01-11T01:56:31.275Z,98722.00
2023-01-11T01:58:11.175Z,98728.00
2023-01-11T01:59:44.063Z,98723.00
2023-01-11T02:01:36.624Z,98719.00
2023-01-11T02:03:19.973Z,98721.00
2023-01-11T02:04:57.289Z,98724.00
2023-01-11T02:06:30.494Z,98728.00
2023-01-11T02:08:12.734Z,98719.00
2023-01-11T02:09:52.696Z,98717.00
2023-01-11T02:11:31.270Z,98717.00
2023-01-11T02:13:09.872Z,98711.00
2023-01-11T02:14:44.185Z,98711.00
2023-01-11T02:16:17.964Z,98718.00
2023-01-11T02:17:51.590Z,98714.00
2023-01-11T02:19:50.557Z,98704.00
2023-01-11T02:21:31.687Z,98693.00
2023-01-11T02:23:37.659Z,98700.00
2023-01-11T02:25:50.026Z,98692.00
2023-01-11T02:28:06.954Z,98692.00
2023-01-11T02:29:54.375Z,98688.00
2023-01-11T02:31:39.068Z,98689.00
2023-01-11T02:33:23.131Z,98690.00
2023-01-11T02:35:16.934Z,98678.00
2023-01-11T02:37:08.687Z,98682.00
2023-01-11T02:38:48.351Z,98676.00
2023-01-11T02:40:33.130Z,98681.00
2023-01-11T02:42:34.210Z,98675.00
2023-01-11T02:44:33.666Z,98675.00
2023-01-11T02:46:18.748Z,98669.00
2023-01-11T02:48:00.287Z,98669.00
2023-01-11T02:49:40.361Z,98673.00
2023-01-11T02:51:23.729Z,98677.00
2023-01-11T02:53:04.157Z,98669.00
2023-01-11T02:54:45.295Z,98670.00
2023-01-11T02:56:23.257Z,98679.00
2023-01-11T02:58:00.623Z,98669.00
2023-01-11T02:59:45.316Z,98657.00
2023-01-11T03:01:23.693Z,98661.00
2023-01-11T03:03:17.427Z,98657.00
2023-01-11T03:04:53.300Z,98654.00
2023-01-11T03:06:32.826Z,98655.00
2023-01-11T03:08:31.616Z,98653.00
2023-01-11T03:10:27.309Z,98648.00
2023-01-11T03:12:44.140Z,98651.00
2023-01-11T03:14:31.643Z,98642.00
2023-01-11T03:16:32.369Z,98650.00
2023-01-11T03:18:24.267Z,98640.00
2023-01-11T03:20:10.181Z,98652.00
2023-01-11T03:22:00.629Z,98649.00
2023-01-11T03:23:48.036Z,98646.00
2023-01-11T03:25:32.927Z,98640.00
2023-01-11T03:27:24.080Z,98638.00
2023-01-11T03:29:13.827Z,98642.00
2023-01-11T03:31:01.323Z,98635.00
2023-01-11T03:32:49.610Z,98624.00
2023-01-11T03:34:32.023Z,98624.00
2023-01-11T03:36:19.724Z,98625.00
2023-01-11T03:37:58.743Z,98634.00
2023-01-11T03:39:36.516Z,98622.00
2023-01-11T03:41:16.617Z,98619.00
2023-01-11T03:43:12.229Z,98636.00
2023-01-11T03:44:51.272Z,98628.00
2023-01-11T03:46:30.387Z,98624.00
2023-01-11T03:48:09.764Z,98622.00
2023-01-11T03:49:47.644Z,98616.00
2023-01-11T03:51:27.934Z,98619.00
2023-01-11T03:53:04.647Z,98622.00
2023-01-11T03:54:38.691Z,98624.00
2023-01-11T03:56:16.349Z,98609.00
2023-01-11T03:57:51.660Z,98617.00
2023-01-11T03:59:25.305Z,98618.00
2023-01-11T04:01:00.174Z,98630.00
2023-01-11T04:02:38.936Z,98623.00
2023-01-11T04:04:13.725Z,98622.00
2023-01-11T04:05:53.431Z,98627.00
2023-01-11T04:07:27.062Z,98629.00
2023-01-11T04:08:59.414Z,98628.00
2023-01-11T04:10:32.736Z,98624.00
2023-01-11T04:12:06.756Z,98616.00
2023-01-11T04:13:40.108Z,98625.00
2023-01-11T04:15:13.466Z,98620.00
2023-01-11T04:16:46.861Z,98619.00
2023-01-11T04:18:19.282Z,98621.00
2023-01-11T04:19:53.831Z,98619.00
2023-01-11T04:21:27.197Z,98614.00
2023-01-11T04:22:59.737Z,98612.00
2023-01-11T04:24:33.074Z,98617.00
2023-01-11T04:26:05.530Z,98613.00
2023-01-11T04:27:38.624Z,98606.00
2023-01-11T04:29:12.212Z,98614.00
2023-01-11T04:30:44.525Z,98610.00
2023-01-11T04:32:17.934Z,98614.00
2023-01-11T04:33:51.397Z,98613.00
2023-01-11T04:35:24.993Z,98614.00
2023-01-11T04:36:58.578Z,98607.00
2023-01-11T04:38:31.884Z,98614.00
2023-01-11T04:40:06.576Z,98606.00
2023-01-11T04:42:11.204Z,98600.00
2023-01-11T04:43:44.462Z,98608.00
2023-01-11T04:45:18.124Z,98612.00
2023-01-11T04:46:50.549Z,98608.00
2023-01-11T04:48:23.694Z,98608.00
2023-01-11T04:49:56.831Z,98606.00
2023-01-11T04:51:29.385Z,98603.00
2023-01-11T04:53:02.821Z,98607.00
2023-01-11T04:54:36.023Z,98596.00
2023-01-11T04:56:11.957Z,98596.00
2023-01-11T04:57:47.149Z,98593.00
2023-01-11T04:59:20.461Z,98592.00
2023-01-11T05:00:53.881Z,98586.00
2023-01-11T05:02:27.052Z,98589.00
2023-01-11T05:03:59.867Z,98591.00
2023-01-11T05:05:33.986Z,98589.00
2023-01-11T05:07:08.467Z,98585.00
2023-01-11T05:08:46.528Z,98584.00
2023-01-11T05:10:21.091Z,98580.00
2023-01-11T05:11:53.501Z,98586.00
2023-01-11T05:13:42.401Z,98580.00
2023-01-11T05:15:15.906Z,98575.00
2023-01-11T05:16:49.074Z,98574.00
2023-01-11T05:18:22.359Z,98579.00
2023-01-11T05:19:55.602Z,98578.00
2023-01-11T05:21:31.574Z,98573.00
2023-01-11T05:23:04.735Z,98577.00
2023-01-11T05:24:38.127Z,98573.00
2023-01-11T05:26:13.707Z,98575.00
2023-01-11T05:27:47.040Z,98585.00
2023-01-11T05:29:21.829Z,98578.00
2023-01-11T05:30:54.848Z,98576.00
2023-01-11T05:32:28.214Z,98572.00
2023-01-11T05:34:00.865Z,98575.00
2023-01-11T05:35:34.308Z,98574.00
2023-01-11T05:37:08.476Z,98573.00
2023-01-11T05:38:42.927Z,98571.00
2023-01-11T05:40:16.532Z,98566.00
2023-01-11T05:41:49.920Z,98577.00
2023-01-11T05:43:22.075Z,98580.00
2023-01-11T05:45:14.085Z,98577.00
2023-01-11T05:46:47.456Z,98568.00
2023-01-11T05:48:21.797Z,98564.00
2023-01-11T05:49:55.054Z,98565.00
2023-01-11T05:51:30.719Z,98558.00
2023-01-11T05:53:04.184Z,98560.00
2023-01-11T05:54:37.482Z,98568.00
2023-01-11T05:56:10.889Z,98558.00
2023-01-11T05:57:45.009Z,98556.00
2023-01-11T05:59:18.383Z,98561.00
2023-01-11T06:00:54.918Z,98557.00
2023-01-11T06:02:28.454Z,98553.00
2023-01-11T06:04:01.283Z,98542.00
2023-01-11T06:05:35.993Z,98553.00
2023-01-11T06:07:09.897Z,98541.00
2023-01-11T06:08:43.439Z,98551.00
2023-01-11T06:10:17.408Z,98555.00
2023-01-11T06:11:50.784Z,98547.00
2023-01-11T06:13:28.002Z,98545.00
2023-01-11T06:15:01.266Z,98544.00
2023-01-11T06:16:35.791Z,98547.00
2023-01-11T06:18:08.841Z,98554.00
2023-01-11T06:19:41.956Z,98551.00
2023-01-11T06:21:16.245Z,98550.00
2023-01-11T06:22:50.761Z,98548.00
2023-01-11T06:24:24.073Z,98553.00
2023-01-11T06:25:57.974Z,98541.00
2023-01-11T06:27:31.252Z,98546.00
2023-01-11T06:29:04.454Z,98562.00
2023-01-11T06:30:37.774Z,98565.00
2023-01-11T06:32:12.659Z,98551.00
2023-01-11T06:33:46.340Z,98560.00
2023-01-11T06:35:19.764Z,98562.00
2023-01-11T06:36:52.987Z,98564.00
2023-01-11T06:38:27.256Z,98561.00
2023-01-11T06:40:00.706Z,98550.00
2023-01-11T06:41:33.879Z,98558.00
2023-01-11T06:43:07.219Z,98552.00
2023-01-11T06:44:43.193Z,98558.00
2023-01-11T06:46:18.764Z,98556.00
2023-01-11T06:47:54.144Z,98543.00
2023-01-11T06:49:27.229Z,98539.00
2023-01-11T06:51:00.968Z,98537.00
2023-01-11T06:52:34.098Z,98564.00
2023-01-11T06:54:07.462Z,98566.00
2023-01-11T06:55:40.814Z,98562.00
2023-01-11T06:57:14.044Z,98554.00
2023-01-11T06:58:52.135Z,98551.00
2023-01-11T07:00:25.912Z,98558.00
2023-01-11T07:01:59.996Z,98564.00
2023-01-11T07:03:34.577Z,98556.00
2023-01-11T07:05:08.613Z,98559.00
2023-01-11T07:06:41.969Z,98549.00
2023-01-11T07:08:15.271Z,98559.00
2023-01-11T07:09:48.457Z,98562.00
2023-01-11T07:11:21.586Z,98556.00
2023-01-11T07:12:53.920Z,98556.00
2023-01-11T07:14:27.074Z,98562.00
2023-01-11T07:16:00.239Z,98564.00
2023-01-11T07:17:34.584Z,98562.00
2023-01-11T07:19:09.440Z,98564.00
2023-01-11T07:20:43.084Z,98571.00
2023-01-11T07:22:16.345Z,98571.00
2023-01-11T07:23:49.902Z,98571.00
2023-01-11T07:25:23.328Z,98574.00
2023-01-11T07:27:00.361Z,98586.00
2023-01-11T07:28:34.231Z,98585.00
2023-01-11T07:30:10.006Z,98589.00
2023-01-11T07:31:43.531Z,98584.00
2023-01-11T07:33:17.137Z,98588.00
2023-01-11T07:34:51.827Z,98586.00
2023-01-11T07:36:25.316Z,98589.00
2023-01-11T07:37:58.477Z,98594.00
2023-01-11T07:39:42.841Z,98600.00
2023-01-11T07:41:30.570Z,98595.00
2023-01-11T07:43:15.670Z,98586.00
2023-01-11T07:44:49.240Z,98586.00
2023-01-11T07:46:22.495Z,98599.00
2023-01-11T07:47:55.879Z,98599.00
2023-01-11T07:49:29.533Z,98584.00
2023-01-11T07:51:04.408Z,98599.00
2023-01-11T07:52:37.585Z,98594.00
2023-01-11T07:54:10.942Z,98600.00
2023-01-11T07:55:47.712Z,98603.00
2023-01-11T07:57:21.015Z,98605.00
2023-01-11T07:58:54.124Z,98611.00
2023-01-11T08:00:27.688Z,98597.00
2023-01-11T08:02:01.075Z,98610.00
2023-01-11T08:03:34.420Z,98609.00
2023-01-11T08:05:08.764Z,98613.00
2023-01-11T08:06:43.508Z,98624.00
2023-01-11T08:08:16.677Z,98625.00
2023-01-11T08:09:49.872Z,98626.00
2023-01-11T08:11:40.947Z,98627.00
2023-01-11T08:13:47.428Z,98643.00
2023-01-11T08:15:22.930Z,98639.00
2023-01-11T08:16:56.776Z,98637.00
2023-01-11T08:18:30.202Z,98639.00
2023-01-11T08:20:03.531Z,98642.00
2023-01-11T08:21:36.892Z,98648.00
2023-01-11T08:23:12.103Z,98653.00
2023-01-11T08:24:45.605Z,98646.00
2023-01-11T08:26:18.764Z,98650.00
2023-01-11T08:27:52.125Z,98661.00
2023-01-11T08:29:25.837Z,98656.00
2023-01-11T08:30:59.412Z,98656.00
2023-01-11T08:32:32.934Z,98648.00
2023-01-11T08:34:06.361Z,98655.00
2023-01-11T08:35:40.527Z,98646.00
2023-01-11T08:37:14.432Z,98637.00
2023-01-11T08:38:49.708Z,98638.00
2023-01-11T08:40:24.278Z,98617.00
2023-01-11T08:41:57.885Z,98617.00
2023-01-11T08:43:31.734Z,98618.00
2023-01-11T08:45:05.285Z,98619.00
2023-01-11T08:46:38.215Z,98624.00
2023-01-11T08:48:12.110Z,98632.00
2023-01-11T08:49:45.467Z,98632.00
2023-01-11T08:51:19.689Z,98641.00
2023-01-11T08:52:53.372Z,98632.00
2023-01-11T08:54:27.971Z,98647.00
2023-01-11T08:56:01.367Z,98646.00
2023-01-11T08:57:34.559Z,98644.00
2023-01-11T08:59:08.358Z,98647.00
2023-01-11T09:00:41.790Z,98644.00
2023-01-11T09:02:14.940Z,98647.00
2023-01-11T09:03:48.449Z,98643.00
2023-01-11T09:05:22.230Z,98650.00
2023-01-11T09:06:55.481Z,98656.00
2023-01-11T09:08:29.876Z,98650.00
2023-01-11T09:10:05.130Z,98656.00
2023-01-11T09:11:58.022Z,98668.00
2023-01-11T09:13:31.752Z,98657.00
2023-01-11T09:15:06.604Z,98661.00
2023-01-11T09:16:40.072Z,98667.00
2023-01-11T09:18:13.241Z,98660.00
2023-01-11T09:19:46.330Z,98665.00
2023-01-11T09:21:19.722Z,98671.00
2023-01-11T09:22:54.512Z,98675.00
2023-01-11T09:24:27.571Z,98682.00
2023-01-11T09:26:02.233Z,98687.00
2023-01-11T09:27:36.049Z,98693.00
2023-01-11T09:29:09.505Z,98692.00
2023-01-11T09:30:42.877Z,98690.00
2023-01-11T09:32:16.067Z,98692.00
2023-01-11T09:33:49.401Z,98690.00
2023-01-11T09:35:22.568Z,98718.00
2023-01-11T09:36:59.427Z,98709.00
2023-01-11T09:38:33.888Z,98715.00
2023-01-11T09:40:19.702Z,98715.00
2023-01-11T09:42:32.047Z,98716.00
2023-01-11T09:44:16.416Z,98715.00
2023-01-11T09:45:52.217Z,98725.00
2023-01-11T09:47:38.457Z,98722.00
2023-01-11T09:49:20.111Z,98731.00
2023-01-11T09:50:53.721Z,98725.00
2023-01-11T09:52:33.438Z,98741.00
2023-01-11T09:54:10.765Z,98722.00
2023-01-11T09:55:47.515Z,98736.00
2023-01-11T09:57:38.732Z,98726.00
2023-01-11T09:59:24.181Z,98733.00
2023-01-11T10:01:06.825Z,98734.00
2023-01-11T10:03:00.041Z,98733.00
2023-01-11T10:05:18.506Z,98742.00
2023-01-11T10:07:15.427Z,98743.00
2023-01-11T10:18:29.797Z,98758.00
2023-01-11T10:18:43.054Z,98758.00
2023-01-11T10:19:48.207Z,98755.00
2023-01-11T10:21:40.870Z,98751.00
2023-01-11T10:23:25.527Z,98752.00
2023-01-11T10:25:11.552Z,98757.00
2023-01-11T10:26:45.649Z,98762.00
2023-01-11T10:28:31.456Z,98771.00
2023-01-11T10:30:33.584Z,98747.00
2023-01-11T10:32:53.041Z,98737.00
2023-01-11T10:34:49.978Z,98741.00
2023-01-11T10:36:51.651Z,98737.00
2023-01-11T10:38:43.413Z,98752.00
2023-01-11T10:40:40.117Z,98762.00
2023-01-11T10:42:21.622Z,98781.00
2023-01-11T10:44:17.351Z,98779.00
2023-01-11T10:45:54.480Z,98792.00
2023-01-11T10:47:39.389Z,98786.00
2023-01-11T10:49:35.645Z,98783.00
2023-01-11T10:51:27.438Z,98785.00
2023-01-11T10:53:08.632Z,98783.00
2023-01-11T10:54:46.828Z,98777.00
2023-01-11T10:56:42.906Z,98788.00
2023-01-11T10:59:00.999Z,98795.00
2023-01-11T11:00:48.506Z,98785.00
2023-01-11T11:02:49.699Z,98783.00
2023-01-11T11:04:46.568Z,98794.00
2023-01-11T11:06:33.800Z,98810.00
2023-01-11T11:08:14.959Z,98802.00
2023-01-11T11:10:00.739Z,98799.00
2023-01-11T11:11:42.128Z,98813.00
2023-01-11T11:13:24.770Z,98804.00
2023-01-11T11:15:13.380Z,98799.00
2023-01-11T11:17:03.893Z,98801.00
2023-01-11T11:18:37.068Z,98796.00
2023-01-11T11:20:16.432Z,98788.00
2023-01-11T11:21:52.360Z,98795.00
2023-01-11T11:23:28.788Z,98800.00
2023-01-11T11:25:05.929Z,98794.00
2023-01-11T11:26:46.484Z,98803.00
2023-01-11T11:28:28.891Z,98800.00
2023-01-11T11:30:02.261Z,98814.00
2023-01-11T11:31:40.676Z,98809.00
2023-01-11T11:33:23.126Z,98800.00
2023-01-11T11:34:56.751Z,98807.00
2023-01-11T11:36:43.695Z,98823.00
2023-01-11T11:38:24.998Z,98822.00
2023-01-11T11:39:58.342Z,98827.00
2023-01-11T11:41:46.704Z,98830.00
2023-01-11T11:43:24.624Z,98830.00
2023-01-11T11:45:18.565Z,98840.00
2023-01-11T11:46:59.893Z,98836.00
2023-01-11T11:48:36.112Z,98825.00
2023-01-11T11:50:43.064Z,98831.00
2023-01-11T11:52:19.711Z,98833.00
2023-01-11T11:53:56.733Z,98839.00
2023-01-11T11:55:34.933Z,98832.00
2023-01-11T11:57:20.992Z,98834.00
2023-01-11T11:58:57.039Z,98838.00
2023-01-11T12:00:34.683Z,98836.00
2023-01-11T12:02:25.893Z,98842.00
2023-01-11T12:04:05.492Z,98850.00
2023-01-11T12:05:39.055Z,98843.00
2023-01-11T12:07:16.910Z,98845.00
2023-01-11T12:08:50.514Z,98845.00
2023-01-11T12:10:26.411Z,98840.00
2023-01-11T12:12:00.571Z,98846.00
2023-01-11T12:13:37.486Z,98832.00
2023-01-11T12:15:24.557Z,98832.00
2023-01-11T12:16:59.742Z,98834.00
2023-01-11T12:18:42.926Z,98837.00
2023-01-11T12:20:35.244Z,98833.00
2023-01-11T12:22:13.117Z,98832.00
2023-01-11T12:23:46.418Z,98827.00
2023-01-11T12:25:24.866Z,98836.00
2023-01-11T12:27:16.283Z,98833.00
2023-01-11T12:29:16.938Z,98833.00
2023-01-11T12:31:00.181Z,98829.00
2023-01-11T12:33:12.994Z,98838.00
2023-01-11T12:35:14.914Z,98820.00
2023-01-11T12:37:01.492Z,98830.00
2023-01-11T12:38:42.421Z,98821.00
2023-01-11T12:40:27.460Z,98829.00
2023-01-11T12:42:28.411Z,98838.00
2023-01-11T12:44:12.577Z,98825.00
2023-01-11T12:45:59.563Z,98832.00
2023-01-11T12:48:06.687Z,98842.00
2023-01-11T12:49:50.732Z,98841.00
2023-01-11T12:51:59.569Z,98849.00
2023-01-11T12:53:56.682Z,98846.00
2023-01-11T12:55:49.623Z,98848.00
2023-01-11T12:57:35.041Z,98844.00
2023-01-11T12:59:28.731Z,98848.00
2023-01-11T13:01:38.036Z,98856.00
2023-01-11T13:03:56.586Z,98853.00
2023-01-11T13:05:39.608Z,98858.00
2023-01-11T13:07:32.819Z,98855.00
2023-01-11T13:09:20.355Z,98875.00
2023-01-11T13:11:11.051Z,98874.00
2023-01-11T13:12:55.371Z,98876.00
2023-01-11T13:15:01.774Z,98867.00
2023-01-11T13:16:46.505Z,98876.00
2023-01-11T13:18:34.073Z,98880.00
2023-01-11T13:20:26.358Z,98873.00
2023-01-11T13:22:05.339Z,98869.00
2023-01-11T13:23:48.159Z,98879.00
2023-01-11T13:25:26.628Z,98876.00
2023-01-11T13:27:04.256Z,98869.00
2023-01-11T13:28:43.398Z,98877.00
2023-01-11T13:30:19.869Z,98878.00
2023-01-11T13:31:55.791Z,98872.00
2023-01-11T13:33:32.146Z,98881.00
2023-01-11T13:35:15.220Z,98875.00
2023-01-11T13:36:55.475Z,98890.00
2023-01-11T13:38:40.476Z,98901.00
2023-01-11T13:40:23.843Z,98884.00
2023-01-11T13:42:04.456Z,98885.00
2023-01-11T13:43:41.571Z,98891.00
2023-01-11T13:45:22.330Z,98889.00
2023-01-11T13:47:03.877Z,98901.00
2023-01-11T13:48:45.345Z,98893.00
2023-01-11T13:50:26.043Z,98898.00
2023-01-11T13:52:01.152Z,98883.00
2023-01-11T13:53:44.684Z,98897.00
2023-01-11T13:55:27.099Z,98897.00
2023-01-11T13:57:06.158Z,98897.00
2023-01-11T13:58:53.061Z,98890.00
2023-01-11T14:00:34.242Z,98890.00
2023-01-11T14:02:22.088Z,98898.00
2023-01-11T14:04:03.999Z,98911.00
2023-01-11T14:05:49.448Z,98908.00
2023-01-11T14:07:36.960Z,98904.00
2023-01-11T14:09:39.908Z,98908.00
2023-01-11T14:11:28.670Z,98907.00
2023-01-11T14:14:03.959Z,98913.00
2023-01-11T14:15:52.728Z,98918.00
2023-01-11T14:17:46.757Z,98914.00
2023-01-11T14:19:29.714Z,98929.00
2023-01-11T14:21:10.240Z,98920.00
2023-01-11T14:22:56.949Z,98924.00
2023-01-11T14:24:33.995Z,98929.00
2023-01-11T14:26:52.284Z,98933.00
2023-01-11T14:28:54.022Z,98939.00
2023-01-11T14:30:43.225Z,98931.00
2023-01-11T14:32:53.371Z,98931.00
2023-01-11T14:34:58.631Z,98940.00
2023-01-11T14:37:26.003Z,98930.00
2023-01-11T14:39:35.694Z,98934.00
2023-01-11T14:42:02.958Z,98938.00
2023-01-11T14:44:04.581Z,98939.00
2023-01-11T14:46:03.145Z,98931.00
2023-01-11T14:48:03.261Z,98944.00
2023-01-11T14:50:05.171Z,98939.00
2023-01-11T14:51:56.530Z,98940.00
2023-01-11T14:53:38.698Z,98948.00
2023-01-11T14:55:20.037Z,98942.00
2023-01-11T14:56:56.479Z,98944.00
2023-01-11T14:58:33.202Z,98947.00
2023-01-11T15:01:00.891Z,98947.00
2023-01-11T15:02:34.263Z,98953.00
2023-01-11T15:04:23.196Z,98957.00
2023-01-11T15:06:02.395Z,98948.00
2023-01-11T15:07:40.623Z,98958.00
2023-01-11T15:09:47.440Z,98962.00
2023-01-11T15:11:35.351Z,98953.00
2023-01-11T15:13:18.153Z,98964.00
2023-01-11T15:14:57.607Z,98966.00
2023-01-11T15:16:52.392Z,98961.00
2023-01-11T15:18:27.060Z,98963.00
2023-01-11T15:20:09.532Z,98966.00
2023-01-11T15:21:50.205Z,98967.00
2023-01-11T15:23:39.236Z,98967.00
2023-01-11T15:25:24.326Z,98965.00
2023-01-11T15:27:00.324Z,98968.00
2023-01-11T15:28:43.824Z,98974.00
2023-01-11T15:30:40.497Z,98962.00
2023-01-11T15:32:25.395Z,98964.00
2023-01-11T15:34:05.702Z,98975.00
2023-01-11T15:35:39.594Z,98973.00
2023-01-11T15:37:37.623Z,98965.00
2023-01-11T15:39:12.374Z,98963.00
2023-01-11T15:40:47.337Z,98969.00
2023-01-11T15:42:55.495Z,98970.00
2023-01-11T15:45:05.656Z,98965.00
2023-01-11T15:47:23.132Z,98971.00
2023-01-11T15:50:15.211Z,98975.00
2023-01-11T15:52:14.103Z,98975.00
2023-01-11T15:54:27.697Z,98974.00
2023-01-11T15:57:03.511Z,98990.00
2023-01-11T15:59:03.430Z,98981.00
2023-01-11T16:01:08.866Z,98979.00
2023-01-11T16:03:25.377Z,98981.00
2023-01-11T16:05:12.559Z,98982.00
2023-01-11T16:06:53.940Z,98986.00
2023-01-11T16:08:52.486Z,98990.00
2023-01-11T16:10:54.014Z,98997.00
2023-01-11T16:12:55.543Z,99003.00
2023-01-11T16:14:55.644Z,99006.00
2023-01-11T16:16:32.288Z,98998.00
2023-01-11T16:18:15.517Z,98995.00
2023-01-11T16:19:55.362Z,99003.00
2023-01-11T16:21:35.186Z,98996.00
2023-01-11T16:23:10.300Z,99004.00
2023-01-11T16:24:47.848Z,99003.00
2023-01-11T16:26:22.559Z,99011.00
2023-01-11T16:27:59.515Z,99003.00
2023-01-11T16:29:37.897Z,99010.00
2023-01-11T16:31:11.556Z,99010.00
2023-01-11T16:32:50.155Z,99014.00
2023-01-11T16:34:25.513Z,99019.00
2023-01-11T16:36:13.638Z,99013.00
2023-01-11T16:37:51.674Z,99008.00
2023-01-11T16:39:30.417Z,99018.00
2023-01-11T16:41:06.679Z,99014.00
2023-01-11T16:42:47.502Z,99019.00
2023-01-11T16:44:34.665Z,99006.00
2023-01-11T16:46:20.933Z,99021.00
2023-01-11T16:48:06.635Z,99017.00
2023-01-11T16:49:48.636Z,99018.00
2023-01-11T16:51:22.322Z,99026.00
2023-01-11T16:52:57.586Z,99030.00
2023-01-11T16:54:34.287Z,99023.00
2023-01-11T16:56:14.471Z,99023.00
2023-01-11T16:57:53.871Z,99031.00
2023-01-11T16:59:30.644Z,99025.00
2023-01-11T17:01:08.269Z,99037.00
2023-01-11T17:02:43.495Z,99029.00
2023-01-11T17:04:29.791Z,99037.00
2023-01-11T17:06:18.972Z,99049.00
2023-01-11T17:07:52.397Z,99037.00
2023-01-11T17:09:29.437Z,99053.00
2023-01-11T17:11:15.305Z,99053.00
2023-01-11T17:13:07.335Z,99052.00
2023-01-11T17:15:08.400Z,99060.00
2023-01-11T17:16:45.602Z,99054.00
2023-01-11T17:18:28.905Z,99056.00
2023-01-11T17:20:02.728Z,99059.00
2023-01-11T17:21:37.642Z,99065.00
2023-01-11T17:23:17.507Z,99070.00
2023-01-11T17:24:55.606Z,99067.00
2023-01-11T17:26:34.302Z,99067.00
2023-01-11T17:28:17.370Z,99067.00
2023-01-11T17:29:54.128Z,99078.00
2023-01-11T17:31:31.839Z,99077.00
2023-01-11T17:33:05.828Z,99084.00
2023-01-11T17:34:40.614Z,99081.00
2023-01-11T17:36:14.834Z,99074.00
2023-01-11T17:37:57.868Z,99082.00
2023-01-11T17:39:35.808Z,99070.00
2023-01-11T17:41:31.708Z,99084.00
2023-01-11T17:43:25.737Z,99073.00
2023-01-11T17:45:14.640Z,99077.00
2023-01-11T17:46:49.205Z,99089.00
2023-01-11T17:48:24.701Z,99079.00
2023-01-11T17:50:01.994Z,99087.00
2023-01-11T17:51:36.216Z,99082.00
2023-01-11T17:53:18.841Z,99089.00
2023-01-11T17:55:03.963Z,99085.00
2023-01-11T17:56:41.688Z,99087.00
2023-01-11T17:58:20.314Z,99095.00
2023-01-11T18:00:18.667Z,99092.00
2023-01-11T18:02:09.826Z,99080.00
2023-01-11T18:03:46.051Z,99085.00
2023-01-11T18:05:23.475Z,99084.00
2023-01-11T18:07:08.518Z,99085.00
2023-01-11T18:08:48.961Z,99079.00
2023-01-11T18:10:26.812Z,99078.00
2023-01-11T18:12:08.803Z,99075.00
2023-01-11T18:13:42.550Z,99082.00
2023-01-11T18:15:30.099Z,99085.00
2023-01-11T18:17:06.876Z,99090.00
2023-01-11T18:18:44.956Z,99079.00
2023-01-11T18:20:40.343Z,99077.00
2023-01-11T18:22:35.131Z,99089.00
2023-01-11T18:24:53.471Z,99080.00
2023-01-11T18:26:31.745Z,99076.00
2023-01-11T18:28:31.512Z,99075.00
2023-01-11T18:30:11.441Z,99080.00
2023-01-11T18:31:44.724Z,99080.00
2023-01-11T18:33:22.382Z,99088.00
2023-01-11T18:34:56.523Z,99088.00
2023-01-11T18:36:30.644Z,99102.00
2023-01-11T18:38:07.540Z,99098.00
2023-01-11T18:39:42.599Z,99110.00
2023-01-11T18:41:35.816Z,99099.00
2023-01-11T18:43:12.717Z,99102.00
2023-01-11T18:44:49.525Z,99101.00
2023-01-11T18:46:23.139Z,99099.00
2023-01-11T18:47:56.546Z,99103.00
2023-01-11T18:49:29.938Z,99090.00
2023-01-11T18:51:03.229Z,99095.00
2023-01-11T18:52:37.373Z,99104.00
2023-01-11T18:54:16.600Z,99098.00
2023-01-11T18:55:49.870Z,99088.00
2023-01-11T18:57:25.425Z,99092.00
2023-01-11T18:58:58.989Z,99078.00
2023-01-11T19:00:33.535Z,99095.00
2023-01-11T19:02:23.928Z,99080.00
2023-01-11T19:03:57.396Z,99082.00
2023-01-11T19:05:41.108Z,99083.00
2023-01-11T19:07:16.107Z,99078.00
2023-01-11T19:08:49.340Z,99090.00
2023-01-11T19:10:23.986Z,99081.00
2023-01-11T19:11:57.404Z,99081.00
2023-01-11T19:13:32.531Z,99094.00
2023-01-11T19:15:06.942Z,99079.00
2023-01-11T19:16:40.110Z,99087.00
2023-01-11T19:18:13.721Z,99075.00
2023-01-11T19:19:47.160Z,99077.00
2023-01-11T19:21:20.745Z,99072.00
2023-01-11T19:22:54.257Z,99074.00
2023-01-11T19:24:27.450Z,99073.00
2023-01-11T19:26:01.965Z,99068.00
2023-01-11T19:27:35.087Z,99071.00
2023-01-11T19:29:10.586Z,99066.00
2023-01-11T19:30:44.590Z,99067.00
2023-01-11T19:32:23.375Z,99072.00
2023-01-11T19:33:57.526Z,99070.00
2023-01-11T19:35:30.707Z,99064.00
2023-01-11T19:37:04.076Z,99061.00
2023-01-11T19:38:39.556Z,99060.00
2023-01-11T19:40:13.818Z,99043.00
2023-01-11T19:41:59.980Z,99052.00
2023-01-11T19:43:33.357Z,99057.00
2023-01-11T19:45:10.398Z,99047.00
2023-01-11T19:46:42.656Z,99052.00
2023-01-11T19:48:15.899Z,99038.00
2023-01-11T19:50:00.970Z,99035.00
2023-01-11T19:51:34.298Z,99025.00
2023-01-11T19:53:07.671Z,99033.00
2023-01-11T19:54:41.771Z,99038.00